createdAt,value
2017-12-29T00:00:18.716Z,26.92
2017-12-29T00:02:47.059Z,19.17
2017-12-29T00:05:15.466Z,20.95
2017-12-29T00:07:43.839Z,18.35
2017-12-29T00:10:12.233Z,30.75
2017-12-29T00:12:40.587Z,21.02
2017-12-29T00:15:08.945Z,16.85
2017-12-29T00:17:37.294Z,21.12
2017-12-29T00:20:05.679Z,23.45
2017-12-29T00:22:34.027Z,19.52
2017-12-29T00:25:02.379Z,23.30
2017-12-29T00:27:30.740Z,17.48
2017-12-29T00:29:59.129Z,22.08
2017-12-29T00:32:27.497Z,19.95
2017-12-29T00:34:55.865Z,21.35
2017-12-29T00:39:58.834Z,30.77
2017-12-29T00:42:27.219Z,21.12
2017-12-29T00:44:55.616Z,23.85
2017-12-29T00:47:24.026Z,20.55
2017-12-29T00:49:52.387Z,25.95
2017-12-29T00:52:20.778Z,21.92
2017-12-29T00:54:49.153Z,20.60
2017-12-29T00:57:17.516Z,21.45
2017-12-29T00:59:45.865Z,22.35
2017-12-29T01:02:14.219Z,18.75
2017-12-29T01:04:42.628Z,17.77
2017-12-29T01:07:10.976Z,24.15
2017-12-29T01:09:39.328Z,23.05
2017-12-29T01:12:07.680Z,26.92
2017-12-29T01:14:36.043Z,21.70
2017-12-29T01:17:04.419Z,19.02
2017-12-29T01:19:32.779Z,22.33
2017-12-29T01:22:01.173Z,15.77
2017-12-29T01:24:29.541Z,20.75
2017-12-29T01:26:57.903Z,26.40
2017-12-29T01:29:26.276Z,18.40
2017-12-29T01:31:54.626Z,18.08
2017-12-29T01:34:22.992Z,20.42
2017-12-29T01:36:51.355Z,22.60
2017-12-29T01:39:19.746Z,25.42
2017-12-29T01:41:48.103Z,15.80
2017-12-29T01:44:16.455Z,15.07
2017-12-29T01:46:44.806Z,16.83
2017-12-29T01:49:13.160Z,22.92
2017-12-29T01:51:49.218Z,29.55
2017-12-29T01:54:17.591Z,16.10
2017-12-29T01:56:45.944Z,17.35
2017-12-29T01:59:14.312Z,24.55
2017-12-29T02:01:42.659Z,12.55
2017-12-29T02:04:11.015Z,15.93
2017-12-29T02:06:39.378Z,19.10
2017-12-29T02:09:07.722Z,18.52
2017-12-29T02:11:36.099Z,16.02
2017-12-29T02:14:04.444Z,19.52
2017-12-29T02:16:32.816Z,13.85
2017-12-29T02:19:01.168Z,20.83
2017-12-29T02:21:29.502Z,17.60
2017-12-29T02:23:57.907Z,21.98
2017-12-29T02:26:26.253Z,20.65
2017-12-29T02:28:54.599Z,18.23
2017-12-29T02:31:22.953Z,15.88
2017-12-29T02:33:51.318Z,23.42
2017-12-29T02:36:19.712Z,27.70
2017-12-29T02:38:48.073Z,19.55
2017-12-29T02:41:16.428Z,21.77
2017-12-29T02:43:44.771Z,25.30
2017-12-29T02:46:13.153Z,12.90
2017-12-29T02:48:41.549Z,13.40
2017-12-29T02:51:09.891Z,13.40
2017-12-29T02:53:38.246Z,20.85
2017-12-29T02:56:06.609Z,20.42
2017-12-29T02:58:34.962Z,19.37
2017-12-29T03:01:03.306Z,20.52
2017-12-29T03:03:31.695Z,24.42
2017-12-29T03:06:00.079Z,16.00
2017-12-29T03:08:28.418Z,21.87
2017-12-29T03:10:56.817Z,17.55
2017-12-29T03:13:25.166Z,11.48
2017-12-29T03:15:53.560Z,16.77
2017-12-29T03:18:21.928Z,16.75
2017-12-29T03:20:50.318Z,16.17
2017-12-29T03:23:18.682Z,18.83
2017-12-29T03:25:47.037Z,17.05
2017-12-29T03:28:15.379Z,13.27
2017-12-29T03:30:43.767Z,18.08
2017-12-29T03:33:12.170Z,18.27
2017-12-29T03:35:40.527Z,18.75
2017-12-29T03:38:08.887Z,15.70
2017-12-29T03:40:37.227Z,15.85
2017-12-29T03:43:05.580Z,24.95
2017-12-29T03:45:33.960Z,21.75
2017-12-29T03:48:02.328Z,30.35
2017-12-29T03:50:30.706Z,19.08
2017-12-29T03:52:59.083Z,17.37
2017-12-29T03:55:27.450Z,21.42
2017-12-29T03:57:55.847Z,19.17
2017-12-29T04:00:36.558Z,15.07
2017-12-29T04:03:04.916Z,18.98
2017-12-29T04:05:33.273Z,18.83
2017-12-29T04:08:01.671Z,24.33
2017-12-29T04:10:30.023Z,15.07
2017-12-29T04:12:58.403Z,16.55
2017-12-29T04:15:26.771Z,17.40
2017-12-29T04:17:56.284Z,13.32
2017-12-29T04:20:24.630Z,18.60
2017-12-29T04:22:52.988Z,15.65
2017-12-29T04:25:21.375Z,17.52
2017-12-29T04:27:49.731Z,18.23
2017-12-29T04:30:18.103Z,10.45
2017-12-29T04:32:46.448Z,16.20
2017-12-29T04:35:14.842Z,19.85
2017-12-29T04:37:43.182Z,22.40
2017-12-29T04:40:11.601Z,11.57
2017-12-29T04:42:39.954Z,12.25
2017-12-29T04:45:08.317Z,12.60
2017-12-29T04:47:36.663Z,12.85
2017-12-29T04:50:05.015Z,10.40
2017-12-29T04:52:33.473Z,13.75
2017-12-29T04:55:01.824Z,18.87
2017-12-29T04:57:30.176Z,12.60
2017-12-29T04:59:58.536Z,9.10
2017-12-29T05:02:26.883Z,11.40
2017-12-29T05:04:55.273Z,15.52
2017-12-29T05:07:23.668Z,11.05
2017-12-29T05:09:52.018Z,17.77
2017-12-29T05:12:20.387Z,18.40
2017-12-29T05:14:48.739Z,16.00
2017-12-29T05:17:17.090Z,11.65
2017-12-29T05:19:45.443Z,14.25
2017-12-29T05:22:13.836Z,16.00
2017-12-29T05:24:42.186Z,11.55
2017-12-29T05:27:10.533Z,10.82
2017-12-29T05:29:38.879Z,13.95
2017-12-29T05:32:07.222Z,12.45
2017-12-29T05:34:35.623Z,8.52
2017-12-29T05:37:03.964Z,16.27
2017-12-29T05:39:32.333Z,14.20
2017-12-29T05:42:00.694Z,13.68
2017-12-29T05:44:29.047Z,23.40
2017-12-29T05:46:57.462Z,12.15
2017-12-29T05:49:25.818Z,10.07
2017-12-29T05:51:54.175Z,19.73
2017-12-29T05:54:22.530Z,8.63
2017-12-29T05:56:50.884Z,7.97
2017-12-29T05:59:19.260Z,14.13
2017-12-29T06:01:47.617Z,8.80
2017-12-29T06:04:15.976Z,13.48
2017-12-29T06:06:44.340Z,18.55
2017-12-29T06:09:12.679Z,8.90
2017-12-29T06:11:41.059Z,18.75
2017-12-29T06:14:09.410Z,13.40
2017-12-29T06:16:37.750Z,8.02
2017-12-29T06:19:06.095Z,9.27
2017-12-29T06:21:34.521Z,7.25
2017-12-29T06:24:02.904Z,12.23
2017-12-29T06:26:31.297Z,10.48
2017-12-29T06:28:59.759Z,7.28
2017-12-29T06:31:28.127Z,10.70
2017-12-29T06:33:56.476Z,12.00
2017-12-29T06:36:24.854Z,9.98
2017-12-29T06:38:53.211Z,12.85
2017-12-29T06:41:21.573Z,10.95
2017-12-29T06:43:49.935Z,10.40
2017-12-29T06:46:18.340Z,12.63
2017-12-29T06:48:46.724Z,11.50
2017-12-29T06:51:15.071Z,9.75
2017-12-29T06:53:43.416Z,9.57
2017-12-29T06:56:11.778Z,18.60
2017-12-29T06:58:40.127Z,9.50
2017-12-29T07:01:08.495Z,8.32
2017-12-29T07:03:36.849Z,6.35
2017-12-29T07:06:05.205Z,5.47
2017-12-29T07:08:33.553Z,5.65
2017-12-29T07:11:01.920Z,9.48
2017-12-29T07:13:30.298Z,14.50
2017-12-29T07:15:58.645Z,5.62
2017-12-29T07:18:26.990Z,3.95
2017-12-29T07:20:55.379Z,9.93
2017-12-29T07:23:23.719Z,7.80
2017-12-29T07:25:52.178Z,6.07
2017-12-29T07:28:20.524Z,5.47
2017-12-29T07:30:49.194Z,4.32
2017-12-29T07:33:17.540Z,4.45
2017-12-29T07:35:45.954Z,5.18
2017-12-29T07:38:14.376Z,6.22
2017-12-29T07:40:42.729Z,6.45
2017-12-29T07:43:11.249Z,4.40
2017-12-29T07:45:39.601Z,9.65
2017-12-29T07:48:07.933Z,8.75
2017-12-29T07:50:36.332Z,12.32
2017-12-29T07:53:04.727Z,4.20
2017-12-29T07:55:33.320Z,8.93
2017-12-29T07:58:01.764Z,4.87
2017-12-29T08:00:30.103Z,5.65
2017-12-29T08:02:58.522Z,6.55
2017-12-29T08:05:26.901Z,2.60
2017-12-29T08:07:55.256Z,4.03
2017-12-29T08:10:23.660Z,3.35
2017-12-29T08:12:52.006Z,4.45
2017-12-29T08:15:20.362Z,7.37
2017-12-29T08:17:48.706Z,5.07
2017-12-29T08:20:17.051Z,8.25
2017-12-29T08:22:45.415Z,5.18
2017-12-29T08:25:13.830Z,4.15
2017-12-29T08:27:42.177Z,6.40
2017-12-29T08:30:10.536Z,7.68
2017-12-29T08:32:38.875Z,3.80
2017-12-29T08:35:07.206Z,5.25
2017-12-29T08:37:35.580Z,4.53
2017-12-29T08:40:03.962Z,7.55
2017-12-29T08:42:32.313Z,9.30
2017-12-29T08:45:00.663Z,14.07
2017-12-29T08:47:29.029Z,12.88
2017-12-29T08:49:57.371Z,5.00
2017-12-29T08:52:25.803Z,6.22
2017-12-29T08:54:54.180Z,6.15
2017-12-29T08:57:22.511Z,7.70
2017-12-29T08:59:50.860Z,5.45
2017-12-29T09:02:19.339Z,10.98
2017-12-29T09:04:47.716Z,6.53
2017-12-29T09:07:16.079Z,13.40
2017-12-29T09:09:44.422Z,5.03
2017-12-29T09:12:12.788Z,6.60
2017-12-29T09:14:42.082Z,3.55
2017-12-29T09:17:10.451Z,11.43
2017-12-29T09:19:38.792Z,3.12
2017-12-29T09:22:07.146Z,4.28
2017-12-29T09:24:35.520Z,6.95
2017-12-29T09:27:03.887Z,5.75
2017-12-29T09:29:32.245Z,4.70
2017-12-29T09:32:00.584Z,4.70
2017-12-29T09:34:28.927Z,4.00
2017-12-29T09:36:57.321Z,7.37
2017-12-29T09:39:25.708Z,4.47
2017-12-29T09:41:54.059Z,3.40
2017-12-29T09:44:22.422Z,10.63
2017-12-29T09:46:50.754Z,5.43
2017-12-29T09:49:19.184Z,8.73
2017-12-29T09:51:47.547Z,7.25
2017-12-29T09:54:16.860Z,5.82
2017-12-29T09:56:45.227Z,5.57
2017-12-29T09:59:13.608Z,11.23
2017-12-29T10:01:41.990Z,4.62
2017-12-29T10:04:10.382Z,4.82
2017-12-29T10:06:38.732Z,6.65
2017-12-29T10:09:07.070Z,9.48
2017-12-29T10:11:35.410Z,10.18
2017-12-29T10:14:03.789Z,5.90
2017-12-29T10:16:32.171Z,12.65
2017-12-29T10:19:00.630Z,3.12
2017-12-29T10:21:28.972Z,6.75
2017-12-29T10:23:57.383Z,7.20
2017-12-29T10:26:25.753Z,4.68
2017-12-29T10:28:54.098Z,6.70
2017-12-29T10:31:22.502Z,4.35
2017-12-29T10:33:50.867Z,6.30
2017-12-29T10:36:19.238Z,4.82
2017-12-29T10:38:47.572Z,7.95
2017-12-29T10:41:15.917Z,9.77
2017-12-29T10:43:44.314Z,6.65
2017-12-29T10:46:12.673Z,7.57
2017-12-29T10:48:41.017Z,7.05
2017-12-29T10:51:09.378Z,6.07
2017-12-29T10:53:38.675Z,5.18
2017-12-29T10:56:07.052Z,8.48
2017-12-29T10:58:35.459Z,10.15
2017-12-29T11:01:03.824Z,8.48
2017-12-29T11:03:32.170Z,7.55
2017-12-29T11:06:00.519Z,7.62
2017-12-29T11:08:28.911Z,10.20
2017-12-29T11:10:57.258Z,8.73
2017-12-29T11:13:25.630Z,8.10
2017-12-29T11:15:53.971Z,7.82
2017-12-29T11:18:22.352Z,16.20
2017-12-29T11:20:50.784Z,6.95
2017-12-29T11:23:19.174Z,6.62
2017-12-29T11:25:47.531Z,5.95
2017-12-29T11:28:15.862Z,6.35
2017-12-29T11:30:44.274Z,8.25
2017-12-29T11:33:12.728Z,8.32
2017-12-29T11:35:41.105Z,10.00
2017-12-29T11:38:09.470Z,6.65
2017-12-29T11:40:37.807Z,8.98
2017-12-29T11:43:06.175Z,8.68
2017-12-29T11:45:34.541Z,7.50
2017-12-29T11:48:02.906Z,6.65
2017-12-29T11:50:31.257Z,6.72
2017-12-29T11:52:59.609Z,5.62
2017-12-29T11:55:27.980Z,5.93
2017-12-29T11:57:56.338Z,3.97
2017-12-29T12:00:24.722Z,8.52
2017-12-29T12:02:53.068Z,5.97
2017-12-29T12:05:22.370Z,12.07
2017-12-29T12:07:50.731Z,5.95
2017-12-29T12:10:19.115Z,7.55
2017-12-29T12:12:47.459Z,9.20
2017-12-29T12:15:15.797Z,4.72
2017-12-29T12:17:44.143Z,8.40
2017-12-29T12:20:12.486Z,4.18
2017-12-29T12:22:40.902Z,6.45
2017-12-29T12:25:09.252Z,3.80
2017-12-29T12:27:37.616Z,8.80
2017-12-29T12:30:05.965Z,5.32
2017-12-29T12:35:08.807Z,5.72
2017-12-29T12:37:37.157Z,3.12
2017-12-29T12:40:05.505Z,7.85
2017-12-29T12:42:33.850Z,9.07
2017-12-29T12:45:02.205Z,7.28
2017-12-29T12:47:30.584Z,5.45
2017-12-29T12:49:58.948Z,4.55
2017-12-29T12:52:27.301Z,7.37
2017-12-29T12:54:55.655Z,5.15
2017-12-29T12:57:24.012Z,5.90
2017-12-29T12:59:52.420Z,3.67
2017-12-29T13:02:20.764Z,5.30
2017-12-29T13:04:49.104Z,3.10
2017-12-29T13:07:17.491Z,4.68
2017-12-29T13:09:45.832Z,5.93
2017-12-29T13:12:14.214Z,7.47
2017-12-29T13:14:42.564Z,5.65
2017-12-29T13:17:10.927Z,6.65
2017-12-29T13:19:39.293Z,5.43
2017-12-29T13:22:07.639Z,5.30
2017-12-29T13:24:36.006Z,6.07
2017-12-29T13:27:04.374Z,5.05
2017-12-29T13:29:32.758Z,4.95
2017-12-29T13:32:01.225Z,5.43
2017-12-29T13:34:29.703Z,6.00
2017-12-29T13:36:58.091Z,6.53
2017-12-29T13:39:26.432Z,4.70
2017-12-29T13:41:54.814Z,10.55
2017-12-29T13:44:23.183Z,6.78
2017-12-29T13:46:51.528Z,5.03
2017-12-29T13:49:19.923Z,7.35
2017-12-29T13:51:48.281Z,7.37
2017-12-29T13:54:16.657Z,4.55
2017-12-29T13:56:45.013Z,8.65
2017-12-29T13:59:13.346Z,8.52
2017-12-29T14:01:41.695Z,6.30
2017-12-29T14:04:10.046Z,8.65
2017-12-29T14:06:38.423Z,10.18
2017-12-29T14:09:06.773Z,4.60
2017-12-29T14:11:35.126Z,4.28
2017-12-29T14:14:03.473Z,5.90
2017-12-29T14:16:31.824Z,4.45
2017-12-29T14:19:00.292Z,5.60
2017-12-29T14:21:28.625Z,3.83
2017-12-29T14:23:57.028Z,6.82
2017-12-29T14:26:25.400Z,13.15
2017-12-29T14:28:53.742Z,5.25
2017-12-29T14:31:22.112Z,6.05
2017-12-29T14:33:50.447Z,9.00
2017-12-29T14:36:18.825Z,12.85
2017-12-29T14:38:47.186Z,4.68
2017-12-29T14:41:15.549Z,6.95
2017-12-29T14:43:43.901Z,5.15
2017-12-29T14:46:12.259Z,6.15
2017-12-29T14:48:40.626Z,9.23
2017-12-29T14:51:08.969Z,10.70
2017-12-29T14:53:37.302Z,7.32
2017-12-29T14:56:05.655Z,12.30
2017-12-29T14:58:34.008Z,6.82
2017-12-29T15:01:02.393Z,3.47
2017-12-29T15:03:30.746Z,6.20
2017-12-29T15:05:59.081Z,8.10
2017-12-29T15:08:27.423Z,5.47
2017-12-29T15:10:55.786Z,5.55
2017-12-29T15:13:24.163Z,5.85
2017-12-29T15:15:52.510Z,8.93
2017-12-29T15:18:20.969Z,8.70
2017-12-29T15:20:49.316Z,11.00
2017-12-29T15:23:17.679Z,12.85
2017-12-29T15:25:46.023Z,8.65
2017-12-29T15:28:14.375Z,5.10
2017-12-29T15:30:43.660Z,5.78
2017-12-29T15:33:12.024Z,10.32
2017-12-29T15:35:40.379Z,4.15
2017-12-29T15:38:08.726Z,6.55
2017-12-29T15:40:37.070Z,5.80
2017-12-29T15:43:05.461Z,7.47
2017-12-29T15:45:33.796Z,15.40
2017-12-29T15:48:02.137Z,8.10
2017-12-29T15:50:30.479Z,5.50
2017-12-29T15:52:58.828Z,4.28
2017-12-29T15:55:27.206Z,6.30
2017-12-29T15:57:55.574Z,6.93
2017-12-29T16:00:23.944Z,10.00
2017-12-29T16:02:52.300Z,7.22
2017-12-29T16:05:20.655Z,6.45
2017-12-29T16:07:49.046Z,5.00
2017-12-29T16:10:17.405Z,4.95
2017-12-29T16:12:45.753Z,5.47
2017-12-29T16:15:14.105Z,8.45
2017-12-29T16:17:42.455Z,10.70
2017-12-29T16:20:10.855Z,10.57
2017-12-29T16:22:39.200Z,8.23
2017-12-29T16:25:07.547Z,6.82
2017-12-29T16:27:35.926Z,8.18
2017-12-29T16:30:04.271Z,8.50
2017-12-29T16:32:32.683Z,6.90
2017-12-29T16:35:01.033Z,18.17
2017-12-29T16:37:29.385Z,11.07
2017-12-29T16:39:57.756Z,9.43
2017-12-29T16:42:26.119Z,7.40
2017-12-29T16:44:54.491Z,9.00
2017-12-29T16:47:22.841Z,6.40
2017-12-29T16:49:51.174Z,6.60
2017-12-29T16:52:19.560Z,6.72
2017-12-29T16:54:47.921Z,4.12
2017-12-29T16:57:16.286Z,4.70
2017-12-29T16:59:44.626Z,3.42
2017-12-29T17:02:12.961Z,5.60
2017-12-29T17:04:41.316Z,9.32
2017-12-29T17:07:09.655Z,5.00
2017-12-29T17:09:38.024Z,4.15
2017-12-29T17:12:06.375Z,5.25
2017-12-29T17:14:34.723Z,4.35
2017-12-29T17:17:03.082Z,3.53
2017-12-29T17:19:31.434Z,3.70
2017-12-29T17:21:59.835Z,3.65
2017-12-29T17:24:28.180Z,4.62
2017-12-29T17:26:56.527Z,3.20
2017-12-29T17:29:24.933Z,5.55
2017-12-29T17:31:53.291Z,3.33
2017-12-29T17:34:21.686Z,4.37
2017-12-29T17:36:50.039Z,3.65
2017-12-29T17:39:18.379Z,4.25
2017-12-29T17:41:46.754Z,4.12
2017-12-29T17:44:15.114Z,3.42
2017-12-29T17:46:43.511Z,3.75
2017-12-29T17:49:11.908Z,3.20
2017-12-29T17:51:40.257Z,3.33
2017-12-29T17:54:08.603Z,4.37
2017-12-29T17:56:36.965Z,3.47
2017-12-29T17:59:05.345Z,4.40
2017-12-29T18:01:33.696Z,3.30
2017-12-29T18:04:02.088Z,3.67
2017-12-29T18:06:30.496Z,2.37
2017-12-29T18:08:58.885Z,2.92
2017-12-29T18:11:27.238Z,3.62
2017-12-29T18:13:55.605Z,3.65
2017-12-29T18:16:24.077Z,3.05
2017-12-29T18:18:52.448Z,3.05
2017-12-29T18:21:20.876Z,2.60
2017-12-29T18:23:49.286Z,2.53
2017-12-29T18:26:17.638Z,2.37
2017-12-29T18:28:46.024Z,2.03
2017-12-29T18:31:14.396Z,2.50
2017-12-29T18:33:42.803Z,2.10
2017-12-29T18:36:11.165Z,1.65
2017-12-29T18:38:39.528Z,2.42
2017-12-29T18:41:07.909Z,2.60
2017-12-29T18:43:36.264Z,5.37
2017-12-29T18:46:04.677Z,2.92
2017-12-29T18:48:33.040Z,2.08
2017-12-29T18:51:01.433Z,1.95
2017-12-29T18:53:29.774Z,2.17
2017-12-29T18:55:58.126Z,1.80
2017-12-29T18:58:26.506Z,2.17
2017-12-29T19:00:55.078Z,2.28
2017-12-29T19:03:23.843Z,2.28
2017-12-29T19:05:52.226Z,2.05
2017-12-29T19:08:20.574Z,2.30
2017-12-29T19:10:48.982Z,2.05
2017-12-29T19:13:17.372Z,2.00
2017-12-29T19:15:45.713Z,2.25
2017-12-29T19:18:14.046Z,3.33
2017-12-29T19:20:42.419Z,3.25
2017-12-29T19:23:10.804Z,1.60
2017-12-29T19:25:39.158Z,1.60
2017-12-29T19:28:07.503Z,1.75
2017-12-29T19:30:35.861Z,1.90
2017-12-29T19:33:04.215Z,1.33
2017-12-29T19:35:32.598Z,2.85
2017-12-29T19:38:02.878Z,1.37
2017-12-29T19:40:34.815Z,1.50
2017-12-29T19:43:03.261Z,2.47
2017-12-29T19:45:31.622Z,1.70
2017-12-29T19:47:59.961Z,1.60
2017-12-29T19:50:28.322Z,1.75
2017-12-29T19:52:56.733Z,1.12
2017-12-29T19:55:25.097Z,1.58
2017-12-29T19:57:53.452Z,1.87
2017-12-29T20:00:21.834Z,1.55
2017-12-29T20:02:50.344Z,2.58
2017-12-29T20:05:18.812Z,2.65
2017-12-29T20:07:47.168Z,4.20
2017-12-29T20:10:15.524Z,1.70
2017-12-29T20:12:43.867Z,1.23
2017-12-29T20:15:12.208Z,4.70
2017-12-29T20:17:40.611Z,2.37
2017-12-29T20:20:08.980Z,1.50
2017-12-29T20:22:37.332Z,1.27
2017-12-29T20:25:05.675Z,3.28
2017-12-29T20:27:34.023Z,0.93
2017-12-29T20:30:02.499Z,1.70
2017-12-29T20:32:30.851Z,1.80
2017-12-29T20:34:59.217Z,1.40
2017-12-29T20:37:27.627Z,1.70
2017-12-29T20:39:55.974Z,2.20
2017-12-29T20:42:24.354Z,1.90
2017-12-29T20:44:52.747Z,2.78
2017-12-29T20:47:21.137Z,3.05
2017-12-29T20:49:49.499Z,3.55
2017-12-29T20:52:17.848Z,2.08
2017-12-29T20:54:46.294Z,1.58
2017-12-29T20:57:14.638Z,1.30
2017-12-29T20:59:42.996Z,1.98
2017-12-29T21:02:11.360Z,4.53
2017-12-29T21:04:39.704Z,1.50
2017-12-29T21:07:08.100Z,5.40
2017-12-29T21:09:36.507Z,3.65
2017-12-29T21:12:04.923Z,4.82
2017-12-29T21:14:33.313Z,1.90
2017-12-29T21:17:01.662Z,5.62
2017-12-29T21:19:30.079Z,3.22
2017-12-29T21:21:58.615Z,2.30
2017-12-29T21:24:26.975Z,2.92
2017-12-29T21:26:55.327Z,2.78
2017-12-29T21:29:23.766Z,2.28
2017-12-29T21:31:52.101Z,1.35
2017-12-29T21:34:20.538Z,1.80
2017-12-29T21:36:49.113Z,1.55
2017-12-29T21:39:17.547Z,2.15
2017-12-29T21:41:45.888Z,1.77
2017-12-29T21:44:14.263Z,3.83
2017-12-29T21:46:42.665Z,2.60
2017-12-29T21:49:11.014Z,1.58
2017-12-29T21:51:39.389Z,1.37
2017-12-29T21:54:07.746Z,1.35
2017-12-29T21:56:36.100Z,1.50
2017-12-29T21:59:04.479Z,1.70
2017-12-29T22:01:32.878Z,2.08
2017-12-29T22:04:01.287Z,1.87
2017-12-29T22:06:29.638Z,2.40
2017-12-29T22:08:58.025Z,3.35
2017-12-29T22:11:26.399Z,1.95
2017-12-29T22:13:54.804Z,1.80
2017-12-29T22:16:23.269Z,2.62
2017-12-29T22:18:51.663Z,1.98
2017-12-29T22:21:20.007Z,7.90
2017-12-29T22:23:48.350Z,5.30
2017-12-29T22:26:16.714Z,5.12
2017-12-29T22:28:45.056Z,5.28
2017-12-29T22:31:13.460Z,4.87
2017-12-29T22:33:41.813Z,6.95
2017-12-29T22:36:10.155Z,4.40
2017-12-29T22:38:38.507Z,6.60
2017-12-29T22:41:06.856Z,4.65
2017-12-29T22:43:35.255Z,7.95
2017-12-29T22:46:03.691Z,10.85
2017-12-29T22:48:32.023Z,7.75
2017-12-29T22:51:00.369Z,8.02
2017-12-29T22:53:28.715Z,8.70
2017-12-29T22:55:57.108Z,10.23
2017-12-29T22:58:25.460Z,15.85
2017-12-29T23:00:53.828Z,14.02
2017-12-29T23:03:22.220Z,16.40
2017-12-29T23:05:50.612Z,16.70
2017-12-29T23:08:18.967Z,17.45
2017-12-29T23:10:48.379Z,22.35
2017-12-29T23:13:16.737Z,18.05
2017-12-29T23:15:45.116Z,14.93
2017-12-29T23:18:13.494Z,21.55
2017-12-29T23:20:41.894Z,16.00
2017-12-29T23:23:10.255Z,26.80
2017-12-29T23:25:38.629Z,26.55
2017-12-29T23:28:06.993Z,24.25
2017-12-29T23:30:35.369Z,26.10
2017-12-29T23:33:03.755Z,62.30
2017-12-29T23:35:32.124Z,27.10
2017-12-29T23:38:00.525Z,24.70
2017-12-29T23:40:28.886Z,21.77
2017-12-29T23:42:57.258Z,22.15
2017-12-29T23:45:25.637Z,27.83
2017-12-29T23:47:54.024Z,26.17
2017-12-29T23:50:22.405Z,27.48
2017-12-29T23:52:50.769Z,21.27
2017-12-29T23:55:19.134Z,20.08
2017-12-29T23:57:47.539Z,26.95
